Time;durP1;ratioP1;P1;durP2;ratioP2;P2;SDS_P1;SDS_P2;PMS_P1;PMS_P2;Temp;Humidity;BMP_temperature;BMP_pressure;BME280_temperature;BME280_humidity;BME280_pressure;Samples;Min_cycle;Max_cycle;Signal;HPM_P1;HPM_P2
2022/11/25 00:00:36;;;;;;;10.63;6.28;;;;;;;6.19;74.59;100265.16;10429458;28;20152;-64
2022/11/25 00:05:38;;;;;;;18.77;8.55;;;;;;;6.11;74.38;100263.22;10431304;28;20065;-64
2022/11/25 00:10:39;;;;;;;15.02;8.00;;;;;;;6.03;75.06;100263.13;10430251;28;20124;-64
2022/11/25 00:15:41;;;;;;;17.95;7.55;;;;;;;5.95;74.29;100251.38;10428267;28;20411;-63
2022/11/25 00:20:42;;;;;;;17.65;8.45;;;;;;;5.93;74.31;100250.63;10428506;28;20135;-63
2022/11/25 00:25:43;;;;;;;54.05;19.25;;;;;;;5.90;74.76;100239.41;10421293;28;20080;-63
2022/11/25 00:30:45;;;;;;;45.60;16.95;;;;;;;5.86;74.67;100235.38;10427385;28;20144;-63
2022/11/25 00:35:46;;;;;;;23.08;8.93;;;;;;;5.57;75.49;100260.34;10411945;28;20530;-63
2022/11/25 00:44:34;;;;;;;20.10;7.30;;;;;;;5.60;74.79;100261.88;10424601;28;20527;-63
2022/11/25 00:46:12;;;;;;;17.58;6.72;;;;;;;5.68;74.73;100240.66;10429080;28;20080;-62
2022/11/25 00:51:14;;;;;;;19.40;6.95;;;;;;;5.70;74.94;100238.69;10435600;28;20057;-63
2022/11/25 00:56:15;;;;;;;16.95;7.28;;;;;;;5.74;74.47;100254.22;10440135;28;20069;-63
2022/11/25 01:01:17;;;;;;;17.38;6.30;;;;;;;5.79;74.88;100236.97;10432829;28;20128;-64
2022/11/25 01:06:19;;;;;;;13.88;6.28;;;;;;;5.76;75.09;100246.09;10432434;28;20132;-63
2022/11/25 01:11:21;;;;;;;14.98;7.25;;;;;;;5.75;74.47;100253.25;10434734;28;20481;-62
2022/11/25 01:16:23;;;;;;;14.93;7.05;;;;;;;5.65;74.85;100247.13;10436337;28;20084;-63
2022/11/25 01:21:28;;;;;;;19.42;9.50;;;;;;;5.68;75.35;100252.16;10434688;28;20056;-63
2022/11/25 01:26:30;;;;;;;24.25;8.80;;;;;;;5.66;75.26;100259.47;10414424;28;20141;-64
2022/11/25 01:31:35;;;;;;;19.50;7.03;;;;;;;5.67;75.25;100269.16;10433125;28;20037;-62
2022/11/25 01:36:36;;;;;;;14.02;6.50;;;;;;;5.70;74.93;100252.00;10427304;28;20053;-63
2022/11/25 01:41:38;;;;;;;20.30;7.82;;;;;;;5.75;74.93;100260.44;10430029;28;20120;-63
2022/11/25 01:46:55;;;;;;;11.65;5.78;;;;;;;5.84;75.19;100245.34;10433515;28;20069;-63
2022/11/25 01:52:15;;;;;;;14.17;6.63;;;;;;;5.91;75.17;100243.78;10429541;28;20041;-63
2022/11/25 01:57:23;;;;;;;9.18;5.75;;;;;;;5.92;75.54;100245.44;10411366;28;20477;-63
2022/11/25 02:02:25;;;;;;;14.20;5.38;;;;;;;5.91;75.48;100262.47;10423630;28;20136;-63
2022/11/25 02:07:33;;;;;;;14.25;5.32;;;;;;;5.97;75.17;100245.88;10431134;28;20049;-64
2022/11/25 02:12:36;;;;;;;11.07;5.15;;;;;;;6.09;74.73;100242.00;10431111;28;20083;-63
2022/11/25 02:17:37;;;;;;;13.15;5.82;;;;;;;6.17;75.78;100235.94;10435471;28;20132;-63
2022/11/25 02:23:14;;;;;;;14.93;6.45;;;;;;;6.21;74.94;100239.16;10430925;28;20485;-63
2022/11/25 02:28:21;;;;;;;11.80;5.90;;;;;;;6.27;75.02;100235.88;10418204;28;20055;-64
2022/11/25 02:33:23;;;;;;;14.97;5.83;;;;;;;6.29;75.03;100229.38;10430317;28;21044;-63
2022/11/25 02:38:44;;;;;;;12.20;6.15;;;;;;;6.31;75.15;100222.06;10425101;28;20053;-65
2022/11/25 02:43:46;;;;;;;17.27;6.65;;;;;;;6.31;75.06;100231.91;10419959;28;20543;-66
2022/11/25 02:48:47;;;;;;;12.23;7.05;;;;;;;6.29;74.35;100218.69;10414177;28;20822;-64
2022/11/25 02:54:10;;;;;;;20.13;7.63;;;;;;;6.30;75.06;100223.06;10442078;28;20061;-65
2022/11/25 02:59:11;;;;;;;21.65;7.97;;;;;;;6.29;74.97;100218.69;10448170;28;20156;-65
2022/11/25 03:04:13;;;;;;;14.73;7.00;;;;;;;6.26;75.08;100224.38;10449070;28;20076;-64
2022/11/25 03:09:14;;;;;;;16.75;7.78;;;;;;;6.19;74.61;100223.28;10444405;28;20057;-65
2022/11/25 03:14:15;;;;;;;16.60;10.63;;;;;;;6.15;74.86;100225.41;10447162;28;20423;-65
2022/11/25 03:19:17;;;;;;;15.15;8.77;;;;;;;6.11;74.13;100240.03;10443611;28;20073;-64
2022/11/25 03:24:18;;;;;;;17.45;7.70;;;;;;;6.06;75.31;100254.81;10440627;28;20121;-65
2022/11/25 03:29:19;;;;;;;14.35;8.27;;;;;;;6.03;75.04;100245.28;10436509;28;20906;-65
2022/11/25 03:34:21;;;;;;;18.23;11.10;;;;;;;6.03;74.77;100229.28;10433021;28;20064;-65
2022/11/25 03:39:23;;;;;;;14.05;7.25;;;;;;;6.08;74.78;100231.47;10428049;28;20127;-65
2022/11/25 03:44:24;;;;;;;15.30;7.10;;;;;;;6.09;75.13;100230.50;10437066;28;20049;-65
2022/11/25 03:49:26;;;;;;;18.17;6.70;;;;;;;6.07;75.24;100230.66;10430727;28;20049;-62
2022/11/25 03:54:28;;;;;;;13.40;7.10;;;;;;;6.11;74.53;100223.19;10425370;28;20073;-64
2022/11/25 03:59:29;;;;;;;19.05;6.93;;;;;;;6.18;74.79;100218.09;10434066;28;20080;-63
2022/11/25 04:04:31;;;;;;;13.48;5.15;;;;;;;6.22;75.15;100222.13;10432164;28;20570;-63
2022/11/25 04:09:32;;;;;;;12.25;5.75;;;;;;;6.24;75.29;100226.34;10405187;28;20064;-63
2022/11/25 04:14:34;;;;;;;11.27;5.88;;;;;;;6.24;75.36;100222.81;10429790;28;20135;-62
2022/11/25 04:19:36;;;;;;;14.23;6.25;;;;;;;6.31;75.09;100216.72;10429729;28;20385;-63
2022/11/25 04:24:37;;;;;;;13.93;5.10;;;;;;;6.38;75.21;100216.97;10416122;28;20084;-63
2022/11/25 04:29:38;;;;;;;14.20;5.78;;;;;;;6.45;74.77;100214.53;10435277;28;20041;-65
2022/11/25 04:34:40;;;;;;;8.90;5.20;;;;;;;6.49;75.27;100222.06;10425247;28;20485;-65
2022/11/25 04:39:41;;;;;;;14.68;5.85;;;;;;;6.60;75.24;100221.00;10429507;28;20136;-65
2022/11/25 04:44:43;;;;;;;12.13;5.35;;;;;;;6.63;74.89;100220.69;10432575;28;20136;-66
2022/11/25 04:50:06;;;;;;;11.05;5.32;;;;;;;6.70;74.66;100218.25;10432441;28;20056;-65
2022/11/25 04:55:08;;;;;;;16.52;7.43;;;;;;;6.74;74.73;100201.75;10432334;28;20099;-65
2022/11/25 05:00:10;;;;;;;14.35;5.10;;;;;;;6.79;75.29;100192.44;10432219;28;20057;-65
2022/11/25 05:05:11;;;;;;;13.05;6.85;;;;;;;6.81;75.14;100201.97;10433867;28;20080;-65
2022/11/25 05:10:13;;;;;;;16.08;6.28;;;;;;;6.87;75.23;100221.88;10429514;28;20136;-65
2022/11/25 05:15:15;;;;;;;23.50;6.97;;;;;;;6.92;74.77;100212.41;10428221;28;20132;-65
2022/11/25 05:20:16;;;;;;;15.82;6.22;;;;;;;7.00;75.13;100211.63;10429316;28;20080;-66
2022/11/25 05:25:19;;;;;;;19.55;7.30;;;;;;;7.03;74.70;100218.50;10430802;28;20463;-65
2022/11/25 05:30:21;;;;;;;17.73;6.78;;;;;;;6.99;74.90;100212.66;10426261;28;20072;-65
2022/11/25 05:35:22;;;;;;;29.58;9.07;;;;;;;7.09;75.76;100220.53;10429169;28;20411;-65
2022/11/25 05:40:23;;;;;;;18.27;6.80;;;;;;;7.17;75.02;100209.91;10437433;28;20131;-66
2022/11/25 05:45:25;;;;;;;16.20;6.38;;;;;;;7.22;74.64;100210.28;10430710;28;20056;-65
2022/11/25 05:50:26;;;;;;;19.17;6.05;;;;;;;7.29;74.81;100222.03;10432496;28;20103;-66
2022/11/25 05:55:27;;;;;;;14.85;6.15;;;;;;;7.35;74.54;100216.03;10427553;28;20072;-66
2022/11/25 06:00:29;;;;;;;16.38;6.35;;;;;;;7.39;74.75;100211.22;10429850;28;20151;-66
2022/11/25 06:05:33;;;;;;;12.80;5.32;;;;;;;7.43;75.28;100217.91;10433853;28;20156;-66
2022/11/25 06:10:39;;;;;;;11.57;5.10;;;;;;;7.44;74.94;100218.75;10428981;28;20056;-66
2022/11/25 06:15:43;;;;;;;16.55;6.40;;;;;;;7.49;75.06;100232.50;10431426;28;20072;-65
2022/11/25 06:20:45;;;;;;;13.43;5.63;;;;;;;7.52;75.13;100234.84;10438768;28;20057;-66
2022/11/25 06:25:46;;;;;;;13.48;5.32;;;;;;;7.55;74.80;100247.91;10435687;28;20095;-66
2022/11/25 06:30:47;;;;;;;13.75;5.38;;;;;;;7.60;74.95;100245.56;10436575;28;20077;-66
2022/11/25 06:35:49;;;;;;;17.40;5.80;;;;;;;7.53;75.53;100244.56;10426659;28;20053;-64
2022/11/25 06:40:50;;;;;;;9.88;5.20;;;;;;;7.53;74.98;100264.09;10433665;28;20049;-65
2022/11/25 06:45:54;;;;;;;16.70;5.38;;;;;;;7.43;75.25;100270.56;10437687;28;20409;-66
2022/11/25 06:51:00;;;;;;;16.33;5.75;;;;;;;7.46;75.07;100268.41;10415898;28;20137;-64
2022/11/25 06:56:14;;;;;;;16.73;6.20;;;;;;;7.51;75.76;100270.63;10424289;28;20398;-62
2022/11/25 07:01:19;;;;;;;16.50;6.35;;;;;;;7.57;74.95;100291.38;10433725;28;20057;-59
2022/11/25 07:06:21;;;;;;;13.05;6.07;;;;;;;7.53;75.75;100271.28;10422368;28;20137;-63
2022/11/25 07:11:25;;;;;;;17.80;6.30;;;;;;;7.57;75.67;100267.31;10447030;28;20064;-62
2022/11/25 07:16:27;;;;;;;15.15;5.95;;;;;;;7.63;75.47;100288.06;10452787;28;20084;-64
2022/11/25 07:21:31;;;;;;;21.52;6.85;;;;;;;7.73;75.32;100280.75;10441874;28;20048;-63
2022/11/25 07:26:37;;;;;;;13.00;5.30;;;;;;;7.83;76.29;100267.25;10446480;28;20049;-62
2022/11/25 07:31:42;;;;;;;13.93;6.05;;;;;;;7.90;75.94;100283.53;10434996;28;20061;-61
2022/11/25 07:36:45;;;;;;;14.20;6.70;;;;;;;7.97;76.40;100295.25;10440010;28;20088;-61
2022/11/25 07:41:53;;;;;;;22.45;7.00;;;;;;;8.00;76.41;100305.66;10442085;28;20071;-62
2022/11/25 07:46:54;;;;;;;17.27;7.25;;;;;;;8.16;75.72;100317.44;10441489;28;20148;-60
2022/11/25 07:51:58;;;;;;;18.75;7.30;;;;;;;8.26;75.42;100315.47;10436325;28;20063;-60
2022/11/25 07:57:00;;;;;;;15.88;6.88;;;;;;;8.37;75.57;100312.47;10438059;28;20072;-60
2022/11/25 08:02:01;;;;;;;20.00;7.40;;;;;;;8.43;75.86;100316.38;10436770;28;20069;-63
2022/11/25 08:07:03;;;;;;;13.00;7.03;;;;;;;8.54;75.77;100313.41;10442583;28;20107;-62
2022/11/25 08:12:04;;;;;;;14.57;6.30;;;;;;;8.53;75.88;100314.41;10443563;28;20080;-62
2022/11/25 08:17:06;;;;;;;16.40;7.30;;;;;;;8.59;75.93;100315.59;10436840;28;20041;-65
2022/11/25 08:22:07;;;;;;;21.33;7.70;;;;;;;8.68;76.01;100320.78;10455644;28;20061;-65
2022/11/25 08:27:08;;;;;;;13.63;8.02;;;;;;;8.75;76.14;100329.03;10475733;28;20045;-64
2022/11/25 08:32:10;;;;;;;20.52;7.93;;;;;;;8.78;75.99;100328.69;10479143;28;20038;-64
2022/11/25 08:37:12;;;;;;;18.38;7.75;;;;;;;8.85;75.85;100320.84;10585346;23;20078;-88
2022/11/25 08:42:14;;;;;;;19.00;8.20;;;;;;;8.89;76.22;100332.91;10441973;28;20064;-88
2022/11/25 08:47:16;;;;;;;15.48;7.60;;;;;;;8.85;76.01;100340.44;10438419;28;20054;-89
2022/11/25 08:57:34;;;;;;;19.85;7.50;;;;;;;8.93;76.46;100340.44;10633198;22;20045;-91
2022/11/25 09:02:35;;;;;;;14.88;6.47;;;;;;;8.89;76.61;100349.81;10444168;23;20504;-68
2022/11/25 09:07:37;;;;;;;14.35;6.63;;;;;;;8.73;77.14;100353.31;10457477;28;20102;-68
2022/11/25 09:12:38;;;;;;;11.77;5.30;;;;;;;8.67;77.50;100356.66;10464816;28;20033;-62
2022/11/25 09:28:13;;;;;;;13.17;6.40;;;;;;;8.69;77.58;100377.94;11239066;22;20134;-67
2022/11/25 09:33:15;;;;;;;17.70;6.05;;;;;;;8.84;77.06;100378.97;10393824;28;20061;-66
2022/11/25 09:38:17;;;;;;;13.07;5.93;;;;;;;8.96;76.66;100384.00;10398207;28;20065;-68
2022/11/25 09:50:02;;;;;;;17.05;7.03;;;;;;;8.99;76.93;100397.09;10386104;28;20042;-66
2022/11/25 09:55:37;;;;;;;17.23;7.15;;;;;;;9.03;77.16;100385.88;10391250;28;20065;-67
2022/11/25 10:00:42;;;;;;;13.98;6.22;;;;;;;9.16;76.84;100381.88;10377606;28;20045;-64
2022/11/25 10:05:54;;;;;;;12.70;6.38;;;;;;;9.21;76.61;100385.72;10419689;28;20052;-64
2022/11/25 10:11:02;;;;;;;19.92;7.03;;;;;;;9.27;77.06;100397.63;10423637;28;20037;-64
2022/11/25 10:16:06;;;;;;;;;;;;;;;9.20;77.10;100402.84;10438365;28;20037;-64
2022/11/25 10:21:10;;;;;;;16.25;7.47;;;;;;;9.48;76.74;100394.47;10438242;28;19936;-64
2022/11/25 10:26:14;;;;;;;18.38;8.35;;;;;;;9.67;76.52;100402.16;10745713;22;20042;-64
2022/11/25 10:36:35;;;;;;;17.73;6.82;;;;;;;9.92;76.44;100415.56;10424825;28;20045;-69
2022/11/25 10:42:12;;;;;;;15.95;7.20;;;;;;;9.92;76.68;100412.88;10435605;28;20041;-65
2022/11/25 10:47:33;;;;;;;16.38;7.10;;;;;;;9.86;76.69;100427.00;10437739;28;20060;-65
2022/11/25 11:03:22;;;;;;;15.93;6.00;;;;;;;10.09;76.58;100417.22;10459193;22;20060;-93
2022/11/25 11:08:27;;;;;;;14.50;8.57;;;;;;;10.07;76.85;100418.38;10414915;28;20054;-90
2022/11/25 11:13:32;;;;;;;18.48;7.13;;;;;;;10.17;76.56;100428.94;10439526;28;20117;-91
2022/11/25 11:18:36;;;;;;;13.20;7.30;;;;;;;10.23;76.44;100420.19;10442501;28;20058;-92
2022/11/25 11:23:50;;;;;;;21.05;7.47;;;;;;;10.31;76.50;100433.66;10392527;28;20038;-89
2022/11/25 11:29:03;;;;;;;15.02;7.63;;;;;;;10.45;76.00;100424.88;10408422;28;20045;-89
2022/11/25 11:34:39;;;;;;;15.13;7.93;;;;;;;10.50;76.10;100433.25;10400784;28;20069;-88
2022/11/25 11:40:17;;;;;;;13.40;6.82;;;;;;;10.56;76.31;100439.78;10411302;28;20095;-90
2022/11/25 11:45:43;;;;;;;13.13;5.93;;;;;;;10.62;76.24;100443.63;10416895;28;20057;-91
2022/11/25 11:50:49;;;;;;;12.00;6.20;;;;;;;10.69;76.17;100455.38;10421285;28;20136;-90
2022/11/25 11:56:31;;;;;;;21.60;7.07;;;;;;;10.76;76.05;100450.94;10408734;28;20069;-91
2022/11/25 12:02:04;;;;;;;11.68;6.72;;;;;;;11.05;75.21;100454.84;10377886;28;20038;-88
2022/11/25 12:07:30;;;;;;;19.05;6.65;;;;;;;11.13;75.39;100441.34;10404965;23;20060;-70
2022/11/25 12:12:41;;;;;;;14.43;6.25;;;;;;;11.19;74.79;100453.25;10438134;28;20465;-69
2022/11/25 12:17:51;;;;;;;17.30;6.50;;;;;;;11.21;74.50;100451.22;10417035;28;20059;-69
2022/11/25 12:22:58;;;;;;;12.90;5.85;;;;;;;11.14;75.16;100469.09;10439450;28;20072;-69
2022/11/25 12:28:19;;;;;;;16.80;5.60;;;;;;;11.16;74.76;100467.91;10438165;28;20140;-69
2022/11/25 12:33:29;;;;;;;15.48;6.07;;;;;;;11.22;75.00;100461.81;10441947;28;20416;-71
2022/11/25 12:38:54;;;;;;;14.25;6.40;;;;;;;11.30;74.34;100471.69;10438678;28;20519;-70
2022/11/25 12:44:16;;;;;;;17.65;6.93;;;;;;;11.24;74.87;100481.31;10428281;28;20052;-70
2022/11/25 12:49:24;;;;;;;16.48;7.05;;;;;;;11.46;74.57;100490.44;10448478;28;20140;-71
2022/11/25 12:55:03;;;;;;;18.08;7.03;;;;;;;11.68;74.60;100488.75;10428223;28;20767;-70
2022/11/25 13:00:21;;;;;;;10.65;5.93;;;;;;;11.73;74.48;100490.94;10401393;28;20152;-71
2022/11/25 13:05:48;;;;;;;12.70;5.82;;;;;;;11.69;74.05;100497.69;10391069;28;20072;-67
2022/11/25 13:11:46;;;;;;;15.05;6.72;;;;;;;11.77;74.12;100516.47;10390973;28;20132;-66
2022/11/25 13:16:49;;;;;;;15.70;6.47;;;;;;;11.88;73.90;100523.28;10228365;28;20051;-66
2022/11/25 13:21:55;;;;;;;14.43;6.03;;;;;;;11.79;73.79;100527.91;10365294;28;20457;-66
2022/11/25 13:26:57;;;;;;;11.43;6.28;;;;;;;11.71;74.02;100530.66;10389124;28;20124;-66
2022/11/25 13:32:00;;;;;;;14.45;5.32;;;;;;;11.74;73.86;100542.91;10388146;28;20101;-67
2022/11/25 13:37:40;;;;;;;17.00;6.45;;;;;;;11.76;73.50;100540.88;10390065;28;20143;-67
2022/11/25 13:42:44;;;;;;;14.70;6.65;;;;;;;11.89;73.57;100542.00;10388985;28;20132;-67
2022/11/25 13:47:47;;;;;;;13.05;6.25;;;;;;;11.81;73.34;100549.25;10387217;28;20550;-67
2022/11/25 13:52:59;;;;;;;12.57;5.63;;;;;;;11.78;73.28;100561.22;10383962;28;20048;-68
2022/11/25 13:58:05;;;;;;;17.60;6.10;;;;;;;11.85;73.41;100572.16;10396501;28;20144;-67
2022/11/25 14:03:18;;;;;;;14.68;7.20;;;;;;;11.89;73.01;100570.78;10394562;28;20445;-67
2022/11/25 14:08:28;;;;;;;17.23;6.15;;;;;;;11.90;73.49;100586.75;10398549;28;20067;-68
2022/11/25 14:13:30;;;;;;;9.27;5.78;;;;;;;12.00;72.75;100583.00;10376502;28;20057;-68
2022/11/25 14:18:37;;;;;;;12.60;5.65;;;;;;;12.10;72.72;100583.59;10399767;28;20069;-67
2022/11/25 14:24:36;;;;;;;14.03;5.77;;;;;;;12.10;72.98;100591.69;10392607;28;20425;-68
2022/11/25 14:29:45;;;;;;;15.45;5.72;;;;;;;12.10;73.08;100595.22;10395690;28;20072;-67
2022/11/25 14:34:53;;;;;;;16.42;5.97;;;;;;;12.13;72.67;100602.09;10387451;28;20034;-65
2022/11/25 14:40:02;;;;;;;13.90;5.07;;;;;;;12.21;72.68;100612.00;10384772;28;20140;-65
2022/11/25 14:45:20;;;;;;;13.15;5.07;;;;;;;12.13;72.77;100618.28;10381280;28;20049;-67
2022/11/25 14:50:23;;;;;;;11.85;4.38;;;;;;;12.08;72.98;100631.44;10392520;28;20072;-64
2022/11/25 14:55:37;;;;;;;15.15;4.85;;;;;;;12.09;72.38;100631.25;10394035;28;20488;-64
2022/11/25 15:01:22;;;;;;;9.75;4.43;;;;;;;12.00;72.76;100642.28;10389591;28;20576;-64
2022/11/25 15:06:27;;;;;;;6.40;3.83;;;;;;;12.02;72.51;100642.94;10355249;28;20140;-64
2022/11/25 15:11:33;;;;;;;10.77;3.80;;;;;;;12.04;72.90;100646.28;10395042;28;20057;-61
2022/11/25 15:16:40;;;;;;;13.38;4.47;;;;;;;11.98;72.12;100645.13;10379346;28;20076;-61
2022/11/25 15:21:42;;;;;;;13.70;4.43;;;;;;;11.87;72.76;100648.22;10395788;28;20108;-61
2022/11/25 15:27:13;;;;;;;10.82;4.10;;;;;;;11.73;73.21;100652.50;10392413;28;20285;-61
2022/11/25 15:32:27;;;;;;;8.43;3.95;;;;;;;11.68;72.55;100655.72;10393842;28;20080;-64
2022/11/25 15:37:29;;;;;;;9.35;3.78;;;;;;;11.64;73.15;100661.63;10396420;28;20125;-61
2022/11/25 15:42:32;;;;;;;12.57;4.18;;;;;;;11.61;72.89;100668.22;10393988;28;20065;-61
2022/11/25 15:47:34;;;;;;;8.27;4.15;;;;;;;11.54;73.52;100678.00;10395165;28;20133;-70
2022/11/25 15:52:39;;;;;;;9.85;4.55;;;;;;;11.62;73.43;100690.59;10391574;28;20137;-70
2022/11/25 15:57:40;;;;;;;10.60;4.47;;;;;;;11.64;72.85;100689.38;10387043;28;20504;-68
2022/11/25 16:02:42;;;;;;;9.32;5.18;;;;;;;11.63;73.25;100697.63;10387054;28;20459;-67
2022/11/25 16:07:49;;;;;;;11.80;4.45;;;;;;;11.66;73.15;100706.22;10386542;28;20141;-68
2022/11/25 16:13:22;;;;;;;14.88;5.07;;;;;;;11.62;73.05;100704.06;10370529;28;20567;-67
2022/11/25 16:18:38;;;;;;;7.15;3.30;;;;;;;11.57;72.97;100718.03;10392108;28;20049;-69
2022/11/25 16:23:46;;;;;;;9.70;5.30;;;;;;;11.60;73.35;100723.06;10389072;28;20504;-68
2022/11/25 16:28:56;;;;;;;10.05;3.88;;;;;;;11.61;72.89;100721.22;10388370;28;20057;-69
2022/11/25 16:34:08;;;;;;;19.50;4.30;;;;;;;11.65;72.76;100733.31;10393238;28;20495;-68
2022/11/25 16:39:10;;;;;;;17.50;5.47;;;;;;;11.58;72.75;100733.16;10394609;28;20073;-68
2022/11/25 16:44:21;;;;;;;16.42;5.65;;;;;;;11.49;72.72;100747.66;10395485;28;20449;-67
2022/11/25 16:49:22;;;;;;;14.88;5.90;;;;;;;11.27;73.53;100750.06;10397025;28;20053;-68
2022/11/25 16:54:24;;;;;;;16.65;5.65;;;;;;;11.32;73.41;100758.47;10390027;28;20132;-68
2022/11/25 16:59:32;;;;;;;13.48;5.57;;;;;;;11.31;73.28;100775.66;10393463;28;20121;-69
2022/11/25 17:04:34;;;;;;;15.40;6.03;;;;;;;11.23;73.27;100781.00;10399373;28;20041;-69
2022/11/25 17:09:35;;;;;;;13.00;6.32;;;;;;;11.23;73.89;100791.78;10391376;28;20041;-68
2022/11/25 17:14:37;;;;;;;24.55;7.07;;;;;;;11.10;74.22;100781.53;10400357;28;20041;-65
2022/11/25 17:19:39;;;;;;;16.38;6.78;;;;;;;10.95;74.64;100796.66;10391631;28;20535;-66
2022/11/25 17:24:41;;;;;;;14.52;7.78;;;;;;;10.92;74.78;100805.09;10391120;28;20056;-67
2022/11/25 17:29:43;;;;;;;20.50;8.40;;;;;;;10.85;74.99;100818.34;10372901;28;20064;-64
2022/11/25 17:34:44;;;;;;;12.45;7.35;;;;;;;10.90;75.01;100823.25;10394487;28;20096;-64
2022/11/25 17:39:46;;;;;;;16.10;7.80;;;;;;;10.90;74.99;100829.44;10387419;28;20318;-64
2022/11/25 17:44:47;;;;;;;16.38;8.23;;;;;;;10.86;75.08;100838.88;10390520;28;20160;-65
2022/11/25 17:49:54;;;;;;;24.43;9.70;;;;;;;10.89;75.00;100843.06;10391418;28;20050;-65
2022/11/25 17:54:56;;;;;;;15.57;8.55;;;;;;;10.97;74.80;100844.91;10375244;28;20058;-64
2022/11/25 17:59:57;;;;;;;18.70;7.85;;;;;;;10.89;75.11;100849.28;10388692;28;20145;-64
2022/11/25 18:05:00;;;;;;;20.98;7.43;;;;;;;10.96;75.09;100854.84;10392066;28;20041;-64
2022/11/25 18:10:01;;;;;;;13.95;6.65;;;;;;;11.01;75.34;100862.41;10388200;28;20061;-63
2022/11/25 18:15:07;;;;;;;17.80;7.22;;;;;;;10.93;75.11;100862.41;10383305;28;20571;-63
2022/11/25 18:20:34;;;;;;;16.00;6.38;;;;;;;10.86;75.06;100870.28;10388061;28;20061;-63
2022/11/25 18:25:38;;;;;;;22.55;7.78;;;;;;;10.75;75.33;100887.56;10384991;28;20046;-63
2022/11/25 18:30:40;;;;;;;11.60;5.85;;;;;;;10.69;75.79;100889.06;10390880;28;20053;-64
2022/11/25 18:35:43;;;;;;;15.98;6.15;;;;;;;10.66;75.20;100894.78;10389235;28;20049;-64
2022/11/25 18:40:44;;;;;;;13.95;6.88;;;;;;;10.62;75.48;100903.31;10390358;28;20631;-62
2022/11/25 18:45:54;;;;;;;15.65;7.95;;;;;;;10.60;75.58;100911.53;10389774;28;20081;-63
2022/11/25 18:50:56;;;;;;;15.48;6.80;;;;;;;10.62;75.50;100917.59;10387754;28;20524;-64
2022/11/25 18:55:58;;;;;;;12.98;6.55;;;;;;;10.56;75.96;100929.00;10384139;28;20057;-63
2022/11/25 19:01:03;;;;;;;19.40;7.78;;;;;;;10.66;75.89;100934.25;10386642;28;20687;-63
2022/11/25 19:06:04;;;;;;;16.92;6.80;;;;;;;10.68;75.84;100960.00;10385692;28;20049;-63
2022/11/25 19:11:15;;;;;;;15.00;6.88;;;;;;;10.57;76.56;100975.56;10387136;28;20457;-64
2022/11/25 19:16:20;;;;;;;15.45;7.32;;;;;;;10.48;76.50;100977.34;10392438;28;20053;-62
2022/11/25 19:21:21;;;;;;;18.38;6.97;;;;;;;10.52;76.39;100986.78;10388832;28;20128;-62
2022/11/25 19:26:27;;;;;;;15.40;7.47;;;;;;;10.60;76.29;100991.34;10384158;28;20105;-63
2022/11/25 19:31:31;;;;;;;15.80;7.32;;;;;;;10.61;76.46;101001.13;10381694;28;20084;-65
2022/11/25 19:36:33;;;;;;;20.25;7.93;;;;;;;10.55;76.18;101007.13;10388487;28;20105;-65
2022/11/25 19:41:35;;;;;;;23.42;8.43;;;;;;;10.61;76.46;101014.56;10390690;28;20051;-62
2022/11/25 19:46:41;;;;;;;20.70;7.82;;;;;;;10.52;76.95;101000.22;10381973;28;20349;-62
2022/11/25 19:52:03;;;;;;;20.98;8.30;;;;;;;10.40;77.11;101015.78;10387555;28;20521;-62
2022/11/25 19:57:22;;;;;;;18.63;8.48;;;;;;;10.31;77.46;101022.13;10388652;28;20045;-63
2022/11/25 20:02:25;;;;;;;14.88;7.18;;;;;;;10.31;77.61;101033.69;10389064;28;20483;-64
2022/11/25 20:07:28;;;;;;;16.77;7.55;;;;;;;10.31;77.54;101048.97;10362995;28;20050;-65
2022/11/25 20:12:30;;;;;;;24.45;8.52;;;;;;;10.26;77.81;101059.31;10389675;28;20157;-64
2022/11/25 20:17:33;;;;;;;15.60;9.07;;;;;;;10.29;77.70;101059.84;10370730;28;20127;-63
2022/11/25 20:22:38;;;;;;;21.70;7.35;;;;;;;10.33;77.37;101063.09;10391482;28;20088;-64
2022/11/25 20:27:40;;;;;;;20.92;10.50;;;;;;;10.25;77.59;101065.72;10386630;28;20128;-63
2022/11/25 20:32:41;;;;;;;36.72;17.90;;;;;;;10.16;77.49;101067.47;10365353;28;20076;-64
2022/11/25 20:37:50;;;;;;;37.88;16.23;;;;;;;10.08;77.46;101078.97;10385252;28;20053;-64
2022/11/25 20:42:52;;;;;;;32.80;14.98;;;;;;;9.98;77.71;101091.66;10387571;28;20085;-64
2022/11/25 20:47:53;;;;;;;19.70;9.75;;;;;;;9.96;77.49;101103.56;10387700;28;20076;-64
2022/11/25 20:52:54;;;;;;;22.10;8.77;;;;;;;9.92;77.47;101114.59;10369042;28;20049;-63
2022/11/25 20:57:56;;;;;;;21.38;8.75;;;;;;;9.86;77.31;101117.91;10383868;28;20073;-63
2022/11/25 21:02:57;;;;;;;19.38;9.88;;;;;;;9.86;77.34;101127.81;10380657;28;20306;-62
2022/11/25 21:08:00;;;;;;;22.48;7.68;;;;;;;9.81;77.43;101127.41;10393126;28;20516;-63
2022/11/25 21:13:09;;;;;;;26.83;8.88;;;;;;;9.76;77.63;101140.44;10381277;28;20073;-63
2022/11/25 21:18:11;;;;;;;20.77;10.15;;;;;;;9.72;77.45;101137.22;10380649;28;20058;-64
2022/11/25 21:23:31;;;;;;;22.42;7.85;;;;;;;9.66;77.24;101135.16;10391617;28;20046;-64
2022/11/25 21:28:39;;;;;;;20.63;9.13;;;;;;;9.58;77.23;101138.56;10389053;28;20128;-63
2022/11/25 21:33:40;;;;;;;15.20;7.55;;;;;;;9.57;77.21;101160.19;10392763;28;20191;-64
2022/11/25 21:38:42;;;;;;;24.58;8.90;;;;;;;9.49;77.13;101161.78;10392766;28;20544;-64
2022/11/25 21:43:46;;;;;;;24.88;9.35;;;;;;;9.41;76.57;101172.41;10389755;28;20631;-64
2022/11/25 21:48:48;;;;;;;25.42;10.20;;;;;;;9.33;76.72;101181.19;10387187;28;20077;-63
2022/11/25 21:53:51;;;;;;;29.52;9.75;;;;;;;9.19;76.66;101184.34;10389925;28;20597;-63
2022/11/25 21:58:53;;;;;;;24.02;10.00;;;;;;;8.98;77.15;101183.72;10393581;28;20128;-63
2022/11/25 22:03:55;;;;;;;36.88;12.23;;;;;;;8.87;77.58;101182.88;10392648;28;20141;-64
2022/11/25 22:08:56;;;;;;;27.27;11.13;;;;;;;8.85;77.49;101198.28;10388152;28;20137;-63
2022/11/25 22:14:01;;;;;;;19.88;9.10;;;;;;;8.83;78.12;101197.56;10379116;28;20112;-64
2022/11/25 22:19:03;;;;;;;24.70;9.43;;;;;;;8.81;78.20;101201.41;10386438;28;20444;-64
2022/11/25 22:24:13;;;;;;;30.38;9.75;;;;;;;8.83;77.34;101205.63;10391158;28;20128;-64
2022/11/25 22:29:18;;;;;;;28.20;10.70;;;;;;;8.83;77.16;101208.31;10387553;28;20410;-65
2022/11/25 22:34:23;;;;;;;24.17;10.25;;;;;;;8.75;76.97;101216.22;10389189;28;20412;-64
2022/11/25 22:39:25;;;;;;;21.25;10.13;;;;;;;8.67;76.67;101218.78;10386359;28;20137;-64
2022/11/25 22:44:33;;;;;;;21.73;9.77;;;;;;;8.53;76.92;101231.59;10386626;28;20152;-64
2022/11/25 22:49:45;;;;;;;22.85;9.38;;;;;;;8.35;77.05;101230.56;10391997;28;20525;-64
2022/11/25 22:54:48;;;;;;;24.10;9.75;;;;;;;8.23;77.07;101248.59;10377503;28;20134;-65
2022/11/25 22:59:49;;;;;;;20.00;9.00;;;;;;;8.17;76.96;101248.31;10389748;28;20144;-65
2022/11/25 23:04:53;;;;;;;19.58;9.10;;;;;;;8.04;77.03;101259.28;10385764;28;20080;-64
2022/11/25 23:09:55;;;;;;;21.15;9.10;;;;;;;7.95;76.47;101266.28;10383516;28;20069;-64
2022/11/25 23:14:57;;;;;;;23.70;9.20;;;;;;;7.86;76.32;101272.44;10386271;28;20061;-64
2022/11/25 23:19:58;;;;;;;24.40;10.43;;;;;;;7.78;76.46;101270.47;10391480;28;20069;-64
2022/11/25 23:24:59;;;;;;;22.10;9.65;;;;;;;7.66;77.00;101277.75;10388727;28;20107;-64
2022/11/25 23:30:01;;;;;;;19.23;9.20;;;;;;;7.63;76.69;101282.50;10384979;28;20149;-65
2022/11/25 23:35:03;;;;;;;22.73;9.45;;;;;;;7.55;76.60;101291.19;10386916;28;20133;-65
2022/11/25 23:40:12;;;;;;;22.25;9.88;;;;;;;7.47;76.55;101297.22;10382650;28;20072;-65
2022/11/25 23:45:16;;;;;;;23.75;10.75;;;;;;;7.42;76.37;101298.59;10391613;28;20054;-65
2022/11/25 23:50:20;;;;;;;20.60;9.88;;;;;;;7.34;76.38;101302.75;10377015;28;20062;-64
2022/11/25 23:55:29;;;;;;;21.13;9.68;;;;;;;7.28;76.65;101305.94;10381701;28;20042;-65
